createdAt,value
2023-04-29T00:00:33.174Z,747.10
2023-04-29T00:01:33.181Z,740.40
2023-04-29T00:02:33.288Z,775.50
2023-04-29T00:03:33.385Z,765.50
2023-04-29T00:04:33.261Z,744.70
2023-04-29T00:05:33.160Z,724.60
2023-04-29T00:06:33.124Z,731.10
2023-04-29T00:07:33.151Z,758.90
2023-04-29T00:08:33.079Z,751.20
2023-04-29T00:09:33.057Z,735.20
2023-04-29T00:10:33.060Z,742.40
2023-04-29T00:11:33.037Z,764.30
2023-04-29T00:12:33.063Z,741.90
2023-04-29T00:13:33.009Z,730.00
2023-04-29T00:14:33.017Z,739.40
2023-04-29T00:15:32.988Z,736.40
2023-04-29T00:16:33.010Z,732.50
2023-04-29T00:17:33.029Z,764.80
2023-04-29T00:18:32.938Z,730.10
2023-04-29T00:19:32.920Z,725.60
2023-04-29T00:20:32.945Z,750.80
2023-04-29T00:21:32.915Z,727.70
2023-04-29T00:22:32.947Z,730.00
2023-04-29T00:23:32.890Z,727.30
2023-04-29T00:24:32.894Z,740.50
2023-04-29T00:25:32.891Z,732.90
2023-04-29T00:26:32.860Z,736.70
2023-04-29T00:27:32.879Z,728.80
2023-04-29T00:28:32.887Z,733.20
2023-04-29T00:29:32.822Z,722.40
2023-04-29T00:30:32.816Z,733.20
2023-04-29T00:31:33.150Z,732.60
2023-04-29T00:32:32.898Z,744.30
2023-04-29T00:33:32.760Z,729.10
2023-04-29T00:34:32.792Z,721.90
2023-04-29T00:35:32.759Z,731.50
2023-04-29T00:36:32.748Z,727.80
2023-04-29T00:37:32.765Z,723.20
2023-04-29T00:38:32.729Z,727.20
2023-04-29T00:39:32.726Z,738.00
2023-04-29T00:40:32.700Z,733.30
2023-04-29T00:41:32.696Z,725.10
2023-04-29T00:42:32.728Z,728.90
2023-04-29T00:43:32.683Z,761.40
2023-04-29T00:44:32.668Z,742.00
2023-04-29T00:45:32.642Z,760.10
2023-04-29T00:46:32.648Z,760.80
2023-04-29T00:47:32.674Z,752.90
2023-04-29T00:48:32.637Z,750.60
2023-04-29T00:49:32.594Z,747.90
2023-04-29T00:50:32.615Z,744.00
2023-04-29T00:51:32.575Z,726.70
2023-04-29T00:52:32.610Z,733.80
2023-04-29T00:53:32.597Z,745.70
2023-04-29T00:54:32.548Z,732.00
2023-04-29T00:55:32.536Z,738.80
2023-04-29T00:56:32.505Z,728.20
2023-04-29T00:57:32.550Z,737.70
2023-04-29T00:58:32.492Z,740.30
2023-04-29T00:59:32.512Z,724.60
2023-04-29T01:00:32.488Z,734.60
2023-04-29T01:01:32.537Z,744.00
2023-04-29T01:02:32.561Z,726.00
2023-04-29T01:03:32.690Z,729.20
2023-04-29T01:04:32.450Z,747.10
2023-04-29T01:05:32.404Z,760.00
2023-04-29T01:06:32.414Z,746.60
2023-04-29T01:07:32.400Z,731.50
2023-04-29T01:08:32.435Z,728.80
2023-04-29T01:09:32.389Z,744.10
2023-04-29T01:10:32.367Z,758.80
2023-04-29T01:11:32.327Z,743.30
2023-04-29T01:12:32.351Z,754.60
2023-04-29T01:13:32.348Z,747.00
2023-04-29T01:14:32.303Z,721.00
2023-04-29T01:15:32.295Z,742.50
2023-04-29T01:16:32.377Z,735.50
2023-04-29T01:17:32.309Z,734.70
2023-04-29T01:18:32.294Z,737.60
2023-04-29T01:19:32.264Z,737.10
2023-04-29T01:20:32.264Z,723.20
2023-04-29T01:21:32.285Z,725.60
2023-04-29T01:22:32.219Z,740.60
2023-04-29T01:23:32.249Z,725.90
2023-04-29T01:24:32.209Z,728.00
2023-04-29T01:25:32.176Z,731.20
2023-04-29T01:26:32.172Z,726.70
2023-04-29T01:27:32.192Z,739.90
2023-04-29T01:28:32.180Z,722.30
2023-04-29T01:29:32.143Z,732.10
2023-04-29T01:30:32.152Z,717.90
2023-04-29T01:31:32.147Z,732.00
2023-04-29T01:32:34.470Z,722.20
2023-04-29T01:33:32.135Z,717.10
2023-04-29T01:34:32.105Z,736.60
2023-04-29T01:35:32.066Z,726.40
2023-04-29T01:36:32.044Z,722.30
2023-04-29T01:37:32.064Z,725.60
2023-04-29T01:38:32.088Z,729.40
2023-04-29T01:39:32.030Z,738.20
2023-04-29T01:40:32.051Z,724.20
2023-04-29T01:41:32.035Z,726.10
2023-04-29T01:42:32.007Z,734.10
2023-04-29T01:43:32.002Z,727.40
2023-04-29T01:44:31.970Z,743.90
2023-04-29T01:45:31.963Z,763.10
2023-04-29T01:46:31.999Z,749.50
2023-04-29T01:47:32.014Z,748.80
2023-04-29T01:48:31.963Z,737.90
2023-04-29T01:49:31.937Z,741.60
2023-04-29T01:50:31.916Z,742.10
2023-04-29T01:51:31.893Z,738.60
2023-04-29T01:52:31.864Z,766.80
2023-04-29T01:53:31.902Z,750.90
2023-04-29T01:54:31.869Z,761.50
2023-04-29T01:55:31.877Z,757.60
2023-04-29T01:56:31.830Z,747.20
2023-04-29T01:57:31.821Z,754.80
2023-04-29T01:58:31.858Z,754.10
2023-04-29T01:59:31.917Z,751.80
2023-04-29T02:00:31.813Z,757.50
2023-04-29T02:01:31.792Z,771.30
2023-04-29T02:02:31.879Z,765.90
2023-04-29T02:03:31.954Z,758.10
2023-04-29T02:04:31.777Z,761.90
2023-04-29T02:05:31.742Z,764.80
2023-04-29T02:06:31.713Z,769.60
2023-04-29T02:07:31.696Z,766.80
2023-04-29T02:08:31.746Z,770.00
2023-04-29T02:09:31.696Z,767.80
2023-04-29T02:10:31.684Z,766.60
2023-04-29T02:11:31.654Z,764.50
2023-04-29T02:12:31.648Z,780.60
2023-04-29T02:13:31.681Z,769.20
2023-04-29T02:14:31.667Z,776.80
2023-04-29T02:15:31.627Z,770.70
2023-04-29T02:16:31.658Z,763.20
2023-04-29T02:17:31.608Z,775.10
2023-04-29T02:18:31.637Z,762.60
2023-04-29T02:19:31.578Z,764.80
2023-04-29T02:20:31.564Z,764.10
2023-04-29T02:21:31.562Z,762.90
2023-04-29T02:22:31.553Z,777.50
2023-04-29T02:23:31.583Z,767.80
2023-04-29T02:24:31.541Z,776.40
2023-04-29T02:25:31.515Z,778.60
2023-04-29T02:26:31.555Z,777.90
2023-04-29T02:27:31.473Z,763.80
2023-04-29T02:28:31.505Z,765.20
2023-04-29T02:29:31.458Z,763.90
2023-04-29T02:30:31.473Z,763.60
2023-04-29T02:31:31.580Z,754.50
2023-04-29T02:32:31.476Z,767.90
2023-04-29T02:33:31.434Z,762.90
2023-04-29T02:34:31.406Z,755.60
2023-04-29T02:35:31.398Z,753.30
2023-04-29T02:36:31.385Z,757.50
2023-04-29T02:37:31.378Z,757.20
2023-04-29T02:38:31.415Z,755.60
2023-04-29T02:39:31.360Z,766.10
2023-04-29T02:40:31.340Z,763.30
2023-04-29T02:41:31.325Z,762.00
2023-04-29T02:42:31.301Z,781.90
2023-04-29T02:43:31.393Z,769.00
2023-04-29T02:44:31.315Z,764.20
2023-04-29T02:45:31.296Z,767.70
2023-04-29T02:46:31.288Z,772.00
2023-04-29T02:47:31.322Z,774.30
2023-04-29T02:48:31.292Z,775.00
2023-04-29T02:49:31.235Z,777.90
2023-04-29T02:50:31.232Z,773.60
2023-04-29T02:51:31.243Z,781.70
2023-04-29T02:52:31.223Z,779.90
2023-04-29T02:53:31.250Z,776.30
2023-04-29T02:54:31.196Z,778.50
2023-04-29T02:55:31.163Z,776.60
2023-04-29T02:56:31.182Z,764.30
2023-04-29T02:57:31.149Z,775.90
2023-04-29T02:58:31.165Z,777.20
2023-04-29T02:59:31.112Z,778.90
2023-04-29T03:00:31.134Z,779.60
2023-04-29T03:01:31.103Z,772.30
2023-04-29T03:02:31.172Z,781.90
2023-04-29T03:03:31.244Z,771.70
2023-04-29T03:04:31.158Z,784.10
2023-04-29T03:05:31.073Z,765.20
2023-04-29T03:06:31.053Z,731.40
2023-04-29T03:07:31.070Z,728.90
2023-04-29T03:08:31.049Z,701.70
2023-04-29T03:09:31.020Z,715.90
2023-04-29T03:10:30.990Z,753.70
2023-04-29T03:11:30.985Z,739.00
2023-04-29T03:12:30.992Z,742.90
2023-04-29T03:13:30.982Z,739.20
2023-04-29T03:14:30.982Z,772.00
2023-04-29T03:15:30.940Z,794.40
2023-04-29T03:16:31.005Z,768.60
2023-04-29T03:17:30.990Z,772.00
2023-04-29T03:18:30.901Z,768.20
2023-04-29T03:19:30.932Z,765.50
2023-04-29T03:20:30.882Z,760.90
2023-04-29T03:21:30.894Z,752.00
2023-04-29T03:22:30.859Z,746.20
2023-04-29T03:23:30.847Z,740.40
2023-04-29T03:24:30.872Z,171.80
2023-04-29T03:25:30.826Z,253.90
2023-04-29T03:26:30.836Z,749.30
2023-04-29T03:27:30.803Z,734.10
2023-04-29T03:28:30.796Z,741.00
2023-04-29T03:29:30.817Z,743.30
2023-04-29T03:30:30.779Z,746.00
2023-04-29T03:31:30.870Z,751.50
2023-04-29T03:32:30.747Z,751.70
2023-04-29T03:33:30.733Z,751.30
2023-04-29T03:34:30.750Z,750.10
2023-04-29T03:35:30.730Z,742.40
2023-04-29T03:36:30.690Z,745.60
2023-04-29T03:37:30.703Z,767.40
2023-04-29T03:38:30.681Z,753.00
2023-04-29T03:39:30.700Z,771.00
2023-04-29T03:40:30.644Z,767.40
2023-04-29T03:41:30.631Z,769.40
2023-04-29T03:42:30.641Z,763.10
2023-04-29T03:43:30.613Z,773.70
2023-04-29T03:44:30.643Z,784.20
2023-04-29T03:45:30.603Z,781.60
2023-04-29T03:46:30.585Z,786.60
2023-04-29T03:47:30.611Z,779.60
2023-04-29T03:48:30.558Z,779.70
2023-04-29T03:49:30.557Z,349.30
2023-04-29T03:50:30.559Z,493.10
2023-04-29T03:51:30.533Z,202.50
2023-04-29T03:52:30.507Z,767.70
2023-04-29T03:53:30.490Z,755.10
2023-04-29T03:54:30.538Z,773.50
2023-04-29T03:55:30.487Z,763.70
2023-04-29T03:56:30.481Z,753.90
2023-04-29T03:57:30.476Z,746.70
2023-04-29T03:58:30.462Z,744.40
2023-04-29T03:59:30.477Z,737.70
2023-04-29T04:00:30.479Z,737.60
2023-04-29T04:01:30.424Z,734.60
2023-04-29T04:02:30.586Z,745.20
2023-04-29T04:03:30.466Z,732.00
2023-04-29T04:04:30.527Z,726.30
2023-04-29T04:05:30.398Z,718.70
2023-04-29T04:06:30.350Z,717.40
2023-04-29T04:07:30.331Z,715.70
2023-04-29T04:08:30.324Z,713.00
2023-04-29T04:09:30.305Z,724.60
2023-04-29T04:10:30.331Z,722.20
2023-04-29T04:11:30.305Z,713.20
2023-04-29T04:12:30.303Z,719.10
2023-04-29T04:13:30.266Z,700.80
2023-04-29T04:14:30.270Z,727.50
2023-04-29T04:15:30.294Z,717.10
2023-04-29T04:16:30.311Z,722.70
2023-04-29T04:17:30.222Z,712.30
2023-04-29T04:18:30.223Z,719.60
2023-04-29T04:19:30.204Z,703.90
2023-04-29T04:20:30.238Z,709.20
2023-04-29T04:21:30.203Z,708.20
2023-04-29T04:22:30.269Z,709.30
2023-04-29T04:23:30.165Z,710.30
2023-04-29T04:24:30.244Z,696.70
2023-04-29T04:25:30.184Z,693.00
2023-04-29T04:26:30.160Z,707.60
2023-04-29T04:27:30.114Z,699.80
2023-04-29T04:28:30.106Z,706.30
2023-04-29T04:29:30.087Z,702.80
2023-04-29T04:30:30.112Z,704.50
2023-04-29T04:31:30.159Z,707.30
2023-04-29T04:32:30.058Z,704.60
2023-04-29T04:33:30.045Z,716.10
2023-04-29T04:34:30.033Z,708.70
2023-04-29T04:35:30.090Z,203.20
2023-04-29T04:36:30.014Z,703.50
2023-04-29T04:37:30.013Z,703.20
2023-04-29T04:38:29.984Z,699.70
2023-04-29T04:39:29.982Z,703.60
2023-04-29T04:40:30.009Z,702.90
2023-04-29T04:41:29.966Z,710.40
2023-04-29T04:42:29.957Z,691.70
2023-04-29T04:43:29.932Z,700.30
2023-04-29T04:44:29.938Z,456.00
2023-04-29T04:45:30.036Z,709.10
2023-04-29T04:46:29.957Z,688.90
2023-04-29T04:47:29.922Z,697.20
2023-04-29T04:48:29.878Z,703.10
2023-04-29T04:49:29.865Z,711.40
2023-04-29T04:50:29.880Z,731.90
2023-04-29T04:51:29.886Z,705.90
2023-04-29T04:52:29.838Z,706.30
2023-04-29T04:53:29.829Z,703.40
2023-04-29T04:54:29.813Z,715.30
2023-04-29T04:55:29.800Z,709.30
2023-04-29T04:56:29.804Z,709.80
2023-04-29T04:57:29.785Z,485.10
2023-04-29T04:58:29.750Z,731.70
2023-04-29T04:59:29.760Z,432.90
2023-04-29T05:00:29.742Z,734.80
2023-04-29T05:01:29.802Z,744.70
2023-04-29T05:02:29.852Z,716.00
2023-04-29T05:03:29.827Z,142.60
2023-04-29T05:04:29.872Z,230.70
2023-04-29T05:05:29.678Z,366.70
2023-04-29T05:06:29.713Z,781.70
2023-04-29T05:07:29.664Z,775.90
2023-04-29T05:08:29.646Z,780.30
2023-04-29T05:09:29.647Z,326.60
2023-04-29T05:10:29.605Z,769.70
2023-04-29T05:11:29.661Z,436.70
2023-04-29T05:12:29.604Z,192.30
2023-04-29T05:13:29.588Z,739.10
2023-04-29T05:14:29.582Z,289.10
2023-04-29T05:15:29.586Z,705.90
2023-04-29T05:16:29.630Z,453.10
2023-04-29T05:17:29.594Z,517.40
2023-04-29T05:18:29.512Z,689.70
2023-04-29T05:19:29.525Z,413.30
2023-04-29T05:20:29.506Z,634.80
2023-04-29T05:21:29.555Z,97.50
2023-04-29T05:22:29.479Z,637.10
2023-04-29T05:23:29.488Z,95.60
2023-04-29T05:24:29.474Z,643.50
2023-04-29T05:25:29.490Z,513.30
2023-04-29T05:26:29.488Z,689.50
2023-04-29T05:27:29.445Z,663.40
2023-04-29T05:28:29.419Z,677.20
2023-04-29T05:29:29.419Z,688.80
2023-04-29T05:30:29.405Z,681.50
2023-04-29T05:31:29.482Z,217.40
2023-04-29T05:32:29.389Z,703.40
2023-04-29T05:33:29.368Z,316.30
2023-04-29T05:34:29.357Z,698.50
2023-04-29T05:35:29.334Z,144.10
2023-04-29T05:36:29.365Z,126.10
2023-04-29T05:37:29.312Z,721.40
2023-04-29T05:38:29.335Z,452.50
2023-04-29T05:39:29.294Z,528.90
2023-04-29T05:40:29.280Z,574.90
2023-04-29T05:41:29.313Z,280.10
2023-04-29T05:42:29.263Z,437.30
2023-04-29T05:43:29.260Z,616.00
2023-04-29T05:44:29.238Z,433.40
2023-04-29T05:45:29.244Z,559.00
2023-04-29T05:46:29.310Z,685.20
2023-04-29T05:47:29.226Z,640.50
2023-04-29T05:48:29.195Z,295.20
2023-04-29T05:49:29.177Z,625.50
2023-04-29T05:50:29.173Z,136.90
2023-04-29T05:51:29.204Z,643.00
2023-04-29T05:52:29.152Z,461.30
2023-04-29T05:53:29.144Z,655.40
2023-04-29T05:54:29.138Z,118.40
2023-04-29T05:55:29.124Z,694.20
2023-04-29T05:56:29.144Z,140.10
2023-04-29T05:57:29.101Z,688.30
2023-04-29T05:58:29.083Z,155.90
2023-04-29T05:59:29.086Z,462.00
2023-04-29T06:00:29.061Z,703.00
2023-04-29T06:01:29.099Z,649.60
2023-04-29T06:02:29.132Z,381.90
2023-04-29T06:03:29.156Z,663.40
2023-04-29T06:04:29.326Z,167.50
2023-04-29T06:05:29.507Z,632.30
2023-04-29T06:06:29.107Z,178.90
2023-04-29T06:07:28.984Z,362.50
2023-04-29T06:08:28.993Z,646.50
2023-04-29T06:09:28.956Z,204.50
2023-04-29T06:10:28.970Z,442.50
2023-04-29T06:11:28.958Z,654.40
2023-04-29T06:12:28.936Z,616.30
2023-04-29T06:13:28.914Z,126.80
2023-04-29T06:14:28.894Z,169.70
2023-04-29T06:15:28.896Z,163.70
2023-04-29T06:16:28.965Z,350.40
2023-04-29T06:17:28.884Z,652.90
2023-04-29T06:18:28.865Z,145.00
2023-04-29T06:19:28.866Z,169.00
2023-04-29T06:20:28.826Z,655.90
2023-04-29T06:21:28.814Z,603.00
2023-04-29T06:22:28.842Z,120.60
2023-04-29T06:23:28.796Z,245.50
2023-04-29T06:24:28.789Z,667.20
2023-04-29T06:25:28.784Z,479.50
2023-04-29T06:26:28.755Z,108.60
2023-04-29T06:27:28.786Z,142.70
2023-04-29T06:28:28.741Z,679.10
2023-04-29T06:29:28.743Z,650.80
2023-04-29T06:30:28.726Z,636.30
2023-04-29T06:31:28.738Z,212.50
2023-04-29T06:32:28.760Z,689.70
2023-04-29T06:33:28.691Z,672.10
2023-04-29T06:34:28.675Z,76.40
2023-04-29T06:35:28.655Z,304.00
2023-04-29T06:36:28.654Z,700.30
2023-04-29T06:37:28.677Z,683.20
2023-04-29T06:38:28.619Z,455.90
2023-04-29T06:39:28.621Z,556.40
2023-04-29T06:40:28.598Z,133.90
2023-04-29T06:41:28.653Z,706.90
2023-04-29T06:42:28.596Z,658.40
2023-04-29T06:43:28.600Z,645.40
2023-04-29T06:44:28.550Z,102.40
2023-04-29T06:45:28.551Z,574.70
2023-04-29T06:46:28.666Z,667.70
2023-04-29T06:47:28.564Z,93.70
2023-04-29T06:48:28.505Z,509.30
2023-04-29T06:49:28.517Z,666.20
2023-04-29T06:50:28.494Z,296.40
2023-04-29T06:51:28.478Z,133.80
2023-04-29T06:52:28.527Z,661.00
2023-04-29T06:53:28.470Z,452.40
2023-04-29T06:54:28.462Z,499.50
2023-04-29T06:55:28.458Z,688.10
2023-04-29T06:56:28.499Z,651.80
2023-04-29T06:57:28.473Z,137.50
2023-04-29T06:58:28.556Z,245.70
2023-04-29T06:59:28.486Z,686.10
2023-04-29T07:00:28.404Z,684.20
2023-04-29T07:01:28.404Z,588.00
2023-04-29T07:02:28.556Z,136.60
2023-04-29T07:03:28.398Z,530.80
2023-04-29T07:04:28.392Z,691.30
2023-04-29T07:05:28.347Z,496.50
2023-04-29T07:06:28.328Z,623.60
2023-04-29T07:07:28.369Z,93.90
2023-04-29T07:08:28.284Z,167.60
2023-04-29T07:09:28.301Z,666.20
2023-04-29T07:10:28.271Z,203.00
2023-04-29T07:11:28.271Z,234.40
2023-04-29T07:12:28.306Z,274.20
2023-04-29T07:13:28.229Z,420.80
2023-04-29T07:14:28.218Z,625.10
2023-04-29T07:15:28.235Z,450.20
2023-04-29T07:16:28.265Z,100.40
2023-04-29T07:17:28.314Z,153.80
2023-04-29T07:18:28.190Z,168.60
2023-04-29T07:19:28.167Z,616.00
2023-04-29T07:20:28.150Z,149.70
2023-04-29T07:21:28.166Z,143.80
2023-04-29T07:22:28.191Z,129.90
2023-04-29T07:23:28.126Z,590.80
2023-04-29T07:24:28.140Z,453.60
2023-04-29T07:25:28.112Z,255.10
2023-04-29T07:26:28.110Z,128.00
2023-04-29T07:27:28.114Z,114.30
2023-04-29T07:28:28.083Z,427.40
2023-04-29T07:29:28.076Z,410.00
2023-04-29T07:30:28.065Z,85.40
2023-04-29T07:31:28.165Z,451.70
2023-04-29T07:32:28.096Z,363.80
2023-04-29T07:33:28.037Z,96.40
2023-04-29T07:34:28.036Z,572.30
2023-04-29T07:35:28.015Z,84.10
2023-04-29T07:36:27.990Z,163.20
2023-04-29T07:37:28.012Z,512.20
2023-04-29T07:38:27.951Z,100.70
2023-04-29T07:39:27.953Z,566.10
2023-04-29T07:40:27.952Z,63.00
2023-04-29T07:41:27.935Z,95.10
2023-04-29T07:42:27.950Z,551.40
2023-04-29T07:43:27.932Z,67.70
2023-04-29T07:44:27.906Z,564.90
2023-04-29T07:45:27.917Z,287.10
2023-04-29T07:46:27.915Z,222.10
2023-04-29T07:47:27.929Z,106.40
2023-04-29T07:48:27.853Z,581.50
2023-04-29T07:49:27.845Z,325.20
2023-04-29T07:50:27.822Z,73.20
2023-04-29T07:51:27.811Z,96.50
2023-04-29T07:52:27.864Z,546.50
2023-04-29T07:53:27.811Z,328.00
2023-04-29T07:54:27.782Z,66.50
2023-04-29T07:55:27.768Z,354.20
2023-04-29T07:56:27.759Z,438.40
2023-04-29T07:57:27.799Z,90.00
2023-04-29T07:58:27.753Z,128.70
2023-04-29T07:59:27.734Z,605.20
2023-04-29T08:00:27.747Z,457.30
2023-04-29T08:01:27.688Z,425.00
2023-04-29T08:02:27.768Z,109.10
2023-04-29T08:03:27.877Z,133.30
2023-04-29T08:04:28.066Z,616.50
2023-04-29T08:05:28.201Z,493.80
2023-04-29T08:06:27.659Z,128.90
2023-04-29T08:07:27.624Z,568.60
2023-04-29T08:08:27.646Z,601.90
2023-04-29T08:09:27.597Z,175.10
2023-04-29T08:10:27.597Z,126.50
2023-04-29T08:11:27.587Z,668.20
2023-04-29T08:12:27.583Z,618.50
2023-04-29T08:13:27.617Z,118.40
2023-04-29T08:14:27.567Z,538.00
2023-04-29T08:15:27.535Z,674.80
2023-04-29T08:16:27.566Z,237.30
2023-04-29T08:17:27.523Z,173.50
2023-04-29T08:18:27.553Z,595.10
2023-04-29T08:19:27.511Z,310.50
2023-04-29T08:20:27.496Z,410.00
2023-04-29T08:21:27.503Z,75.60
2023-04-29T08:22:27.498Z,127.00
2023-04-29T08:23:27.509Z,571.40
2023-04-29T08:24:27.474Z,87.00
2023-04-29T08:25:27.438Z,443.00
2023-04-29T08:26:27.439Z,113.40
2023-04-29T08:27:27.432Z,81.80
2023-04-29T08:28:27.462Z,190.90
2023-04-29T08:29:27.424Z,383.70
2023-04-29T08:30:27.395Z,347.30
2023-04-29T08:31:27.529Z,316.40
2023-04-29T08:32:27.424Z,325.20
2023-04-29T08:33:27.378Z,326.50
2023-04-29T08:34:27.313Z,344.90
2023-04-29T08:35:27.313Z,293.00
2023-04-29T08:36:27.306Z,156.80
2023-04-29T08:37:27.299Z,216.20
2023-04-29T08:38:27.329Z,202.60
2023-04-29T08:39:27.407Z,193.30
2023-04-29T08:40:27.275Z,215.20
2023-04-29T08:41:27.259Z,261.10
2023-04-29T08:42:27.238Z,250.90
2023-04-29T08:43:27.276Z,294.90
2023-04-29T08:44:27.199Z,356.20
2023-04-29T08:45:27.260Z,335.20
2023-04-29T08:46:27.201Z,450.10
2023-04-29T08:47:27.209Z,473.10
2023-04-29T08:48:27.276Z,471.30
2023-04-29T08:49:27.153Z,492.90
2023-04-29T08:50:27.170Z,174.30
2023-04-29T08:51:27.148Z,125.00
2023-04-29T08:52:27.119Z,615.20
2023-04-29T08:53:27.169Z,614.40
2023-04-29T08:54:27.136Z,478.70
2023-04-29T08:55:27.096Z,146.00
2023-04-29T08:56:28.166Z,664.40
2023-04-29T08:57:27.070Z,631.90
2023-04-29T08:58:27.129Z,593.50
2023-04-29T08:59:27.055Z,144.70
2023-04-29T09:00:27.061Z,606.30
2023-04-29T09:01:27.073Z,637.80
2023-04-29T09:02:27.054Z,390.30
2023-04-29T09:03:27.157Z,602.90
2023-04-29T09:04:27.036Z,154.20
2023-04-29T09:05:26.982Z,593.40
2023-04-29T09:06:26.953Z,196.90
2023-04-29T09:07:26.955Z,140.70
2023-04-29T09:08:27.016Z,599.60
2023-04-29T09:09:26.927Z,463.00
2023-04-29T09:10:26.953Z,128.90
2023-04-29T09:11:26.918Z,493.20
2023-04-29T09:12:26.907Z,113.40
2023-04-29T09:13:26.911Z,544.20
2023-04-29T09:14:26.937Z,425.10
2023-04-29T09:15:26.871Z,424.40
2023-04-29T09:16:26.892Z,357.80
2023-04-29T09:17:26.879Z,321.70
2023-04-29T09:18:26.863Z,62.40
2023-04-29T09:19:26.866Z,79.70
2023-04-29T09:20:26.816Z,107.20
2023-04-29T09:21:26.807Z,556.90
2023-04-29T09:22:26.803Z,393.50
2023-04-29T09:23:26.774Z,309.10
2023-04-29T09:24:26.825Z,80.40
2023-04-29T09:25:26.759Z,91.00
2023-04-29T09:26:26.767Z,485.40
2023-04-29T09:27:26.746Z,430.10
2023-04-29T09:28:26.778Z,331.40
2023-04-29T09:29:26.736Z,79.30
2023-04-29T09:30:26.722Z,88.30
2023-04-29T09:31:26.732Z,325.30
2023-04-29T09:32:26.680Z,75.30
2023-04-29T09:33:26.700Z,93.70
2023-04-29T09:34:26.652Z,529.20
2023-04-29T09:35:26.671Z,484.20
2023-04-29T09:36:26.661Z,86.30
2023-04-29T09:37:26.681Z,385.60
2023-04-29T09:38:26.644Z,167.40
2023-04-29T09:39:26.648Z,200.80
2023-04-29T09:40:26.599Z,283.50
2023-04-29T09:41:26.590Z,99.90
2023-04-29T09:42:26.583Z,112.90
2023-04-29T09:43:26.552Z,125.70
2023-04-29T09:44:26.608Z,214.30
2023-04-29T09:45:26.541Z,164.80
2023-04-29T09:46:26.597Z,146.90
2023-04-29T09:47:26.541Z,120.80
2023-04-29T09:48:26.540Z,145.50
2023-04-29T09:49:26.526Z,130.50
2023-04-29T09:50:26.491Z,124.50
2023-04-29T09:51:26.482Z,102.10
2023-04-29T09:52:26.471Z,294.20
2023-04-29T09:53:26.442Z,97.20
2023-04-29T09:54:26.504Z,81.50
2023-04-29T09:55:26.420Z,73.50
2023-04-29T09:56:26.420Z,78.10
2023-04-29T09:57:26.417Z,106.00
2023-04-29T09:58:26.390Z,85.80
2023-04-29T09:59:26.416Z,130.20
2023-04-29T10:00:26.364Z,133.80
2023-04-29T10:01:26.407Z,134.10
2023-04-29T10:02:26.384Z,172.20
2023-04-29T10:03:26.395Z,376.30
2023-04-29T10:04:26.424Z,240.80
2023-04-29T10:05:26.323Z,144.70
2023-04-29T10:06:26.330Z,128.10
2023-04-29T10:07:26.301Z,131.10
2023-04-29T10:08:26.286Z,114.60
2023-04-29T10:09:26.324Z,77.50
2023-04-29T10:10:26.642Z,186.40
2023-04-29T10:11:26.242Z,75.50
2023-04-29T10:12:26.260Z,105.00
2023-04-29T10:13:26.216Z,207.30
2023-04-29T10:14:26.244Z,91.00
2023-04-29T10:15:26.209Z,109.70
2023-04-29T10:16:26.217Z,146.40
2023-04-29T10:17:26.197Z,495.30
2023-04-29T10:18:26.193Z,128.50
2023-04-29T10:19:26.205Z,127.20
2023-04-29T10:20:26.184Z,95.20
2023-04-29T10:21:26.144Z,128.30
2023-04-29T10:22:26.133Z,112.80
2023-04-29T10:23:26.097Z,254.30
2023-04-29T10:24:26.137Z,176.00
2023-04-29T10:25:26.092Z,242.30
2023-04-29T10:26:26.112Z,241.00
2023-04-29T10:27:26.056Z,243.90
2023-04-29T10:28:26.055Z,175.00
2023-04-29T10:29:26.052Z,303.20
2023-04-29T10:30:26.026Z,416.50
2023-04-29T10:31:26.057Z,50.70
2023-04-29T10:32:26.752Z,57.50
2023-04-29T10:33:26.049Z,60.50
2023-04-29T10:34:26.004Z,65.60
2023-04-29T10:35:26.142Z,69.80
2023-04-29T10:36:25.952Z,335.50
2023-04-29T10:37:25.945Z,224.80
2023-04-29T10:38:25.946Z,119.00
2023-04-29T10:39:25.923Z,133.30
2023-04-29T10:40:25.915Z,138.10
2023-04-29T10:41:25.928Z,156.30
2023-04-29T10:42:25.864Z,95.50
2023-04-29T10:43:25.889Z,92.70
2023-04-29T10:44:25.933Z,101.70
2023-04-29T10:45:25.855Z,86.60
2023-04-29T10:46:25.888Z,140.30
2023-04-29T10:47:25.876Z,158.50
2023-04-29T10:48:25.820Z,375.70
2023-04-29T10:49:25.844Z,66.10
2023-04-29T10:50:25.848Z,63.00
2023-04-29T10:51:25.774Z,146.60
2023-04-29T10:52:25.753Z,73.70
2023-04-29T10:53:25.769Z,138.80
2023-04-29T10:54:25.795Z,121.30
2023-04-29T10:55:25.794Z,184.00
2023-04-29T10:56:25.723Z,392.90
2023-04-29T10:57:25.724Z,279.60
2023-04-29T10:58:25.702Z,271.10
2023-04-29T10:59:25.706Z,375.40
2023-04-29T11:00:25.685Z,522.30
2023-04-29T11:01:25.766Z,527.20
2023-04-29T11:02:25.735Z,548.00
2023-04-29T11:03:25.729Z,565.40
2023-04-29T11:04:25.712Z,555.00
2023-04-29T11:05:27.740Z,540.10
2023-04-29T11:06:25.633Z,559.40
2023-04-29T11:07:25.597Z,573.70
2023-04-29T11:08:25.593Z,592.60
2023-04-29T11:09:25.648Z,577.40
2023-04-29T11:10:25.582Z,642.40
2023-04-29T11:11:27.798Z,647.80
2023-04-29T11:12:25.549Z,591.70
2023-04-29T11:13:25.535Z,695.20
2023-04-29T11:14:25.615Z,339.00
2023-04-29T11:15:25.552Z,202.80
2023-04-29T11:16:25.584Z,656.60
2023-04-29T11:17:27.153Z,659.70
2023-04-29T11:18:25.505Z,490.30
2023-04-29T11:19:25.515Z,246.80
2023-04-29T11:20:25.479Z,190.80
2023-04-29T11:21:25.452Z,295.80
2023-04-29T11:22:25.467Z,568.80
2023-04-29T11:23:26.745Z,187.60
2023-04-29T11:24:25.466Z,160.80
2023-04-29T11:25:25.422Z,131.60
2023-04-29T11:26:25.388Z,622.70
2023-04-29T11:27:25.410Z,129.50
2023-04-29T11:28:25.406Z,135.30
2023-04-29T11:29:25.376Z,205.20
2023-04-29T11:30:25.357Z,223.40
2023-04-29T11:31:27.523Z,256.30
2023-04-29T11:32:25.442Z,245.00
2023-04-29T11:33:25.323Z,261.10
2023-04-29T11:34:25.358Z,231.50
2023-04-29T11:35:25.291Z,216.20
2023-04-29T11:36:25.298Z,226.90
2023-04-29T11:37:25.269Z,261.20
2023-04-29T11:38:25.257Z,295.80
2023-04-29T11:39:25.278Z,336.10
2023-04-29T11:40:25.224Z,571.70
2023-04-29T11:41:25.218Z,734.60
2023-04-29T11:42:25.310Z,599.20
2023-04-29T11:43:25.237Z,620.10
2023-04-29T11:44:25.222Z,545.90
2023-04-29T11:45:25.166Z,647.20
2023-04-29T11:46:25.203Z,619.60
2023-04-29T11:47:25.197Z,597.50
2023-04-29T11:48:25.200Z,642.30
2023-04-29T11:49:25.154Z,646.10
2023-04-29T11:50:25.145Z,599.10
2023-04-29T11:51:25.117Z,741.10
2023-04-29T11:52:25.105Z,695.70
2023-04-29T11:53:25.116Z,640.00
2023-04-29T11:54:25.059Z,659.10
2023-04-29T11:55:25.021Z,690.20
2023-04-29T11:56:25.059Z,326.60
2023-04-29T11:57:25.032Z,513.70
2023-04-29T11:58:25.027Z,676.80
2023-04-29T11:59:25.048Z,680.20
2023-04-29T12:00:24.987Z,546.20
2023-04-29T12:01:25.007Z,668.60
2023-04-29T12:02:25.051Z,649.90
2023-04-29T12:03:25.151Z,694.20
2023-04-29T12:04:25.177Z,723.00
2023-04-29T12:05:25.095Z,574.90
2023-04-29T12:06:24.963Z,693.60
2023-04-29T12:07:24.912Z,760.40
2023-04-29T12:08:24.922Z,432.30
2023-04-29T12:09:24.951Z,671.00
2023-04-29T12:10:24.915Z,710.00
2023-04-29T12:11:24.894Z,652.00
2023-04-29T12:12:24.857Z,352.70
2023-04-29T12:13:24.878Z,733.00
2023-04-29T12:14:24.895Z,736.50
2023-04-29T12:15:24.850Z,772.50
2023-04-29T12:16:24.877Z,327.40
2023-04-29T12:17:24.881Z,448.20
2023-04-29T12:18:24.824Z,833.50
2023-04-29T12:19:24.845Z,772.40
2023-04-29T12:20:24.782Z,806.70
2023-04-29T12:21:24.751Z,769.50
2023-04-29T12:22:24.764Z,768.80
2023-04-29T12:23:24.742Z,481.40
2023-04-29T12:24:24.738Z,520.90
2023-04-29T12:25:24.719Z,768.40
2023-04-29T12:26:24.693Z,631.00
2023-04-29T12:27:24.705Z,593.60
2023-04-29T12:28:24.679Z,737.30
2023-04-29T12:29:24.724Z,662.60
2023-04-29T12:30:24.654Z,651.90